Votkinsk, Russia
Current Conditions -  °F | °C
As of 10:00 AM on Wednesday 22 Oct 2014 (Local Time) from USPP Reporting Station
Moderate Snow Moderate Snow  
Wind Chill:   Ceiling: 700
Heat Index: 21°   Visibility: 0.87mi
Dew Point: 19°   Wind: 22mph
Humidity: 93%   Direction: 90°E
Pressure: 29.44"   Gusts: 31mph
Location:  57.04°N, 53.99°E
Report Text: USPP 220600Z 09010G14MPS 1400 SN BLSN OVC007 M06/M07 Q0997 RESNREBLSN 03491046 NOSIG RMK QFE737/0983 MOD TURB INC
Loading
Personal Weather Stations






























Interactive Weather Map
Tropical Storm Tracking
New forecast layout! Learn more

10-Day Weather Forecast

Advertisements
Track Severe Weather on mobile